Portada
METAR-TAF:

METAR-TAF

Aeropuertos :

Jijel, Argelia

latitud: 36-53N, longitud: 005-49E, altitud: 2 m

Observación

El informe se hizo hace 31 minutos, a las 12:00 UTC
Viento 7 kt del oeste-noroeste
Temperatura 17°C
Humedad 48%
Presión 1020 hPa
Visibilidad 10 km o más
Nubes dispersas a una altura de 2600 ft

METAR: DAAV 041200Z 30007KT 9999 SCT026 17/06 Q1020

Hora: 13:31 (12:31 UTC)

Pronóstico

El informe se hizo hace 1 hora y 31 minutos, a las 11:00 UTC
Pronóstico válido del 04 a las 12 UTC al 05 a las 12 UTC
Viento 8 kt del norte-noroeste
Visibilidad 10 km o más
Nubes dispersas a una altura de 2600 ft
Probabilidad 30% :
Temporalmente
del 04 a las 13 UTC al 04 a las 18 UTC
Escasas nubes a una altura de 2600 ft, Cumulus congestus.

TAF: DAAV 041100Z 0412/0512 34008KT 9999 SCT026 PROB30 TEMPO 0413/0418 FEW026TCU

Observaciones y pronósticos meteorológicos de más de 4000 aeropuertos (mensajes METAR y TAF).

Los puntos amarillos y rojos representan las estaciones disponibles.

Ponga el ratón en el punto deseado para ver el nombre de la estación.

Haga clic para ver las observaciones y los pronósticos meteorológicos.

Para cambiar el mapa : haga clic en los botones verdes con una cruz de color negro para hacer un zoom, en el botón verde con un guión para alejar o en las flechas verdes para mapas adyacentes.


METAR-TAF: